Terminal Aerodrome Forecast
Issued by NWS Wilmington, NC

Current Version | Previous Version | Graphics & Text | Print | Product List | Glossary Off
Versions: 1 2 3 4 5 6 7 8 9 10 11 12 13 14 15 16 17 18 19 20 21 22 23 24

182
FTUS42 KILM 170833 AAA
TAFMYR
TAF AMD
KMYR 170833Z 1709/1806 03003KT 6SM BR OVC005
     FM171600 19008KT P6SM SCT007 BKN020
     FM171800 21011KT P6SM SCT250
     FM180200 23010KT P6SM SKC
      AMD LTD TO CLD VIS AND WIND TIL 171100=

USA.gov is the U.S. government's official web portal to all federal, state and local government web resources and services.